• Join FlightAware (Why Join?)
  • Login
  • US Flag 
11:12AM EST


 

Airport Tracker/Info


-or-


 

Live Flight TrackerFlight Track Log ✈ N510SR ✈ 18-Jun-2013 ✈ EGGW / LTN - KTEB

Flight Track Log - Related Links

Times and Time Zones

All times are in EDT time to prevent confusion due to time zone crossing. See the N510SR flight status page for this flight to view local times or setup timezone preferences in your user account.

Time Position Orientation Groundspeed Altitude Reporting Facility
EDT Latitude Longitude Course Direction KTS MPH feet Rate Location/Type
03:19PM 53.7550 -14.3577 288° West  Level Estimated
03:20PM 53.7687 -14.5514 277° West  Level Estimated
03:21PM 53.7821 -14.7451 277° West  Level Estimated
03:22PM 53.7951 -14.9390 277° West  Level Estimated
03:23PM 53.8079 -15.1330 276° West  Level Estimated
03:24PM 53.8203 -15.3272 276° West  Level Estimated
03:25PM 53.8324 -15.5214 276° West  Level Estimated
03:26PM 53.8442 -15.7157 276° West  Level Estimated
03:27PM 53.8557 -15.9102 276° West  Level Estimated
03:28PM 53.8669 -16.1048 276° West  Level Estimated
03:29PM 53.8777 -16.2994 275° West  Level Estimated
03:30PM 53.8883 -16.4942 275° West  Level Estimated
03:31PM 53.8985 -16.6890 275° West  Level Estimated
03:32PM 53.9084 -16.8840 275° West  Level Estimated
03:33PM 53.9180 -17.0790 275° West  Level Estimated
03:34PM 53.9273 -17.2742 275° West  Level Estimated
03:35PM 53.9363 -17.4694 275° West  Level Estimated
03:36PM 53.9449 -17.6647 274° West  Level Estimated
03:37PM 53.9532 -17.8601 274° West  Level Estimated
03:38PM 53.9613 -18.0555 274° West  Level Estimated
03:39PM 53.9689 -18.2511 274° West  Level Estimated
03:40PM 53.9763 -18.4467 274° West  Level Estimated
03:41PM 53.9834 -18.6423 274° West  Level Estimated
03:42PM 53.9901 -18.8381 273° West  Level Estimated
03:43PM 53.9966 -19.0339 273° West  Level Estimated
03:44PM 54.0027 -19.2297 273° West  Level Estimated
03:45PM 54.0084 -19.4256 273° West  Level Estimated
03:46PM 54.0139 -19.6216 273° West  Level Estimated
03:47PM 54.0191 -19.8176 273° West  Level Estimated
03:48PM 54.0239 -20.0137 272° West  Level Estimated
03:49PM 54.0284 -20.2098 272° West  Level Estimated
03:50PM 54.0326 -20.4059 272° West  Level Estimated
03:51PM 54.0365 -20.6021 272° West  Level Estimated
03:52PM 54.0400 -20.7983 272° West  Level Estimated
03:53PM 54.0433 -20.9946 272° West  Level Estimated
03:54PM 54.0462 -21.1908 272° West  Level Estimated
03:55PM 54.0488 -21.3872 271° West  Level Estimated
03:56PM 54.0511 -21.5835 271° West  Level Estimated
03:57PM 54.0530 -21.7798 271° West  Level Estimated
03:58PM 54.0547 -21.9762 271° West  Level Estimated
03:58PM 57.0000 -20.0000 285° West 418 481 40,000  Level ETMS Enhanced Traffic Management System
03:59PM 54.0560 -22.1726 271° West  Level Estimated
04:00PM 54.0570 -22.3690 271° West  Level Estimated
04:01PM 54.0577 -22.5654 270° West  Level Estimated
04:02PM 54.0580 -22.7618 270° West  Level Estimated
04:03PM 54.0581 -22.9582 270° West  Level Estimated
04:04PM 57.2521 -21.8694 283° West 418 481 40,000  Level FlightAware Transoceanic
04:05PM 57.2784 -22.0787 283° West 418 481 40,000  Level FlightAware Transoceanic
04:06PM 57.3043 -22.2882 283° West 418 481 40,000  Level FlightAware Transoceanic
04:07PM 57.3299 -22.4981 283° West 418 481 40,000  Level FlightAware Transoceanic
04:08PM 57.3552 -22.7082 282° West 418 481 40,000  Level FlightAware Transoceanic
04:09PM 57.3801 -22.9186 282° West 418 481 40,000  Level FlightAware Transoceanic
04:10PM 57.4046 -23.1293 282° West 418 481 40,000  Level FlightAware Transoceanic
04:11PM 57.4288 -23.3403 282° West 418 481 40,000  Level FlightAware Transoceanic
04:12PM 57.4526 -23.5516 282° West 418 481 40,000  Level FlightAware Transoceanic
04:13PM 57.4761 -23.7631 282° West 418 481 40,000  Level FlightAware Transoceanic
04:14PM 57.4992 -23.9750 281° West 418 481 40,000  Level FlightAware Transoceanic
04:15PM 57.5220 -24.1870 281° West 418 481 40,000  Level FlightAware Transoceanic
04:16PM 57.5444 -24.3994 281° West 418 481 40,000  Level FlightAware Transoceanic
04:17PM 57.5665 -24.6120 281° West 418 481 40,000  Level FlightAware Transoceanic
04:18PM 57.5882 -24.8248 281° West 418 481 40,000  Level FlightAware Transoceanic
04:19PM 57.6095 -25.0379 280° West 418 481 40,000  Level FlightAware Transoceanic
04:20PM 57.6305 -25.2513 280° West 418 481 40,000  Level FlightAware Transoceanic
04:21PM 57.6511 -25.4649 280° West 418 481 40,000  Level FlightAware Transoceanic
04:22PM 57.6714 -25.6787 280° West 418 481 40,000  Level FlightAware Transoceanic
04:23PM 57.6913 -25.8928 280° West 418 481 40,000  Level FlightAware Transoceanic
04:24PM 57.7108 -26.1071 280° West 418 481 40,000  Level FlightAware Transoceanic
04:25PM 57.7300 -26.3216 279° West 418 481 40,000  Level FlightAware Transoceanic
04:26PM 57.7488 -26.5364 279° West 418 481 40,000  Level FlightAware Transoceanic
04:27PM 57.7673 -26.7514 279° West 418 481 40,000  Level FlightAware Transoceanic
04:28PM 57.7854 -26.9666 279° West 418 481 40,000  Level FlightAware Transoceanic
04:29PM 57.8031 -27.1820 279° West 418 481 40,000  Level FlightAware Transoceanic
04:30PM 57.8204 -27.3976 279° West 418 481 40,000  Level FlightAware Transoceanic
04:31PM 57.8374 -27.6135 278° West 418 481 40,000  Level FlightAware Transoceanic
04:32PM 57.8540 -27.8295 278° West 418 481 40,000  Level FlightAware Transoceanic
04:33PM 57.8703 -28.0457 278° West 418 481 40,000  Level FlightAware Transoceanic
04:34PM 57.8862 -28.2621 278° West 418 481 40,000  Level FlightAware Transoceanic
04:35PM 57.9017 -28.4788 278° West 418 481 40,000  Level FlightAware Transoceanic
04:36PM 57.9169 -28.6956 277° West 418 481 40,000  Level FlightAware Transoceanic
04:37PM 57.9316 -28.9125 277° West 418 481 40,000  Level FlightAware Transoceanic
04:38PM 57.9461 -29.1297 277° West 418 481 40,000  Level FlightAware Transoceanic
04:39PM 57.9601 -29.3470 277° West 418 481 40,000  Level FlightAware Transoceanic
04:40PM 57.9738 -29.5645 277° West 418 481 40,000  Level FlightAware Transoceanic
04:41PM 57.9871 -29.7822 276° West 418 481 40,000  Level FlightAware Transoceanic
04:42PM 57.9999 -29.9983 276° West  Level FlightAware Approximate
04:43PM 58.0127 -30.2146 276° West  Level FlightAware Approximate
04:44PM 58.0082 -30.2137 274° West  Level FlightAware Approximate
04:44PM 58.0000 -30.0000 274° West 423 487 40,000  Level ETMS Enhanced Traffic Management System
04:45PM 58.0162 -30.4308 274° West  Level FlightAware Approximate
04:46PM 58.0238 -30.6480 274° West  Level FlightAware Approximate
04:47PM 58.0311 -30.8653 274° West  Level FlightAware Approximate
04:48PM 58.0379 -31.0826 274° West  Level FlightAware Approximate
04:49PM 58.0444 -31.3001 273° West  Level FlightAware Approximate
04:50PM 58.0573 -31.7743 273° West 423 487 40,000  Level FlightAware Transoceanic
04:51PM 58.0627 -31.9965 273° West 423 487 40,000  Level FlightAware Transoceanic
04:52PM 58.0678 -32.2187 272° West 423 487 40,000  Level FlightAware Transoceanic
04:53PM 58.0724 -32.4410 272° West 423 487 40,000  Level FlightAware Transoceanic
04:54PM 58.0767 -32.6633 272° West 423 487 40,000  Level FlightAware Transoceanic
04:55PM 58.0806 -32.8857 272° West 423 487 40,000  Level FlightAware Transoceanic
04:56PM 58.0841 -33.1081 272° West 423 487 40,000  Level FlightAware Transoceanic
04:57PM 58.0872 -33.3306 271° West 423 487 40,000  Level FlightAware Transoceanic
04:58PM 58.0899 -33.5531 271° West 423 487 40,000  Level FlightAware Transoceanic
04:59PM 58.0922 -33.7757 271° West 423 487 40,000  Level FlightAware Transoceanic
05:00PM 58.0942 -33.9982 271° West 423 487 40,000  Level FlightAware Transoceanic
05:01PM 58.0957 -34.2208 271° West 423 487 40,000  Level FlightAware Transoceanic
05:02PM 58.0969 -34.4434 270° West 423 487 40,000  Level FlightAware Transoceanic
05:03PM 58.0976 -34.6661 270° West 423 487 40,000  Level FlightAware Transoceanic
05:04PM 58.0980 -34.8887 270° West 423 487 40,000  Level FlightAware Transoceanic
05:05PM 58.0980 -35.1113 270° West 423 487 40,000  Level FlightAware Transoceanic
05:06PM 58.0976 -35.3339 270° West 423 487 40,000  Level FlightAware Transoceanic
05:07PM 58.0969 -35.5566 270° West 423 487 40,000  Level FlightAware Transoceanic
05:08PM 58.0957 -35.7792 269° West 423 487 40,000  Level FlightAware Transoceanic
05:09PM 58.0942 -36.0018 269° West 423 487 40,000  Level FlightAware Transoceanic
05:10PM 58.0922 -36.2243 269° West 423 487 40,000  Level FlightAware Transoceanic
05:11PM 58.0899 -36.4469 269° West 423 487 40,000  Level FlightAware Transoceanic
05:12PM 58.0872 -36.6694 269° West 423 487 40,000  Level FlightAware Transoceanic
05:13PM 58.0841 -36.8919 268° West 423 487 40,000  Level FlightAware Transoceanic
05:14PM 58.0806 -37.1143 268° West 423 487 40,000  Level FlightAware Transoceanic
05:15PM 58.0767 -37.3367 268° West 423 487 40,000  Level FlightAware Transoceanic
05:16PM 58.0724 -37.5590 268° West 423 487 40,000  Level FlightAware Transoceanic
05:17PM 58.0678 -37.7813 268° West 423 487 40,000  Level FlightAware Transoceanic
05:18PM 58.0627 -38.0035 267° West 423 487 40,000  Level FlightAware Transoceanic
05:19PM 58.0573 -38.2257 267° West 423 487 40,000  Level FlightAware Transoceanic
05:20PM 58.0515 -38.4478 267° West 423 487 40,000  Level FlightAware Transoceanic
05:21PM 58.0453 -38.6698 267° West 423 487 40,000  Level FlightAware Transoceanic
05:22PM 58.0387 -38.8917 267° West 423 487 40,000  Level FlightAware Transoceanic
05:23PM 58.0317 -39.1135 267° West 423 487 40,000  Level FlightAware Transoceanic
05:24PM 58.0244 -39.3353 266° West 423 487 40,000  Level FlightAware Transoceanic
05:25PM 58.0166 -39.5570 266° West 423 487 40,000  Level FlightAware Transoceanic
05:26PM 58.0085 -39.7785 266° West 423 487 40,000  Level FlightAware Transoceanic
05:27PM 58.0002 -39.9955 266° West  Level FlightAware Approximate
05:27PM 58.0000 -40.0000 254° West 425 489 40,000  Level ETMS Enhanced Traffic Management System
05:28PM 57.9917 -40.2125 266° West  Level FlightAware Approximate
05:29PM 57.9695 -40.2004 254° West  Level FlightAware Approximate
05:30PM 57.9374 -40.4091 254° West  Level FlightAware Approximate
05:31PM 57.9049 -40.6174 254° West  Level FlightAware Approximate
05:32PM 57.8721 -40.8253 254° West  Level FlightAware Approximate
05:33PM 57.7290 -41.7043 253° West 425 489 40,000  Level FlightAware Transoceanic
05:34PM 57.6936 -41.9156 252° West 425 489 40,000  Level FlightAware Transoceanic
05:35PM 57.6577 -42.1264 252° West 425 489 40,000  Level FlightAware Transoceanic
05:36PM 57.6216 -42.3367 252° West 425 489 40,000  Level FlightAware Transoceanic
05:37PM 57.5850 -42.5467 252° West 425 489 40,000  Level FlightAware Transoceanic
05:38PM 57.5482 -42.7562 252° West 425 489 40,000  Level FlightAware Transoceanic
05:39PM 57.5110 -42.9653 252° West 425 489 40,000  Level FlightAware Transoceanic
05:40PM 57.4734 -43.1740 251° West 425 489 40,000  Level FlightAware Transoceanic
05:41PM 57.4355 -43.3823 251° West 425 489 40,000  Level FlightAware Transoceanic
05:42PM 57.3973 -43.5901 251° West 425 489 40,000  Level FlightAware Transoceanic
05:43PM 57.3587 -43.7975 251° West 425 489 40,000  Level FlightAware Transoceanic
05:44PM 57.3198 -44.0044 251° West 425 489 40,000  Level FlightAware Transoceanic
05:45PM 57.2805 -44.2109 251° West 425 489 40,000  Level FlightAware Transoceanic
05:46PM 57.2409 -44.4170 250° West 425 489 40,000  Level FlightAware Transoceanic
05:47PM 57.2009 -44.6226 250° West 425 489 40,000  Level FlightAware Transoceanic
05:48PM 57.1607 -44.8278 250° West 425 489 40,000  Level FlightAware Transoceanic
05:49PM 57.1201 -45.0325 250° West 425 489 40,000  Level FlightAware Transoceanic
05:50PM 57.0791 -45.2368 250° West 425 489 40,000  Level FlightAware Transoceanic
05:51PM 57.0378 -45.4406 249° West 425 489 40,000  Level FlightAware Transoceanic
05:52PM 56.9962 -45.6440 249° West 425 489 40,000  Level FlightAware Transoceanic
05:53PM 56.9543 -45.8469 249° West 425 489 40,000  Level FlightAware Transoceanic
05:54PM 56.9120 -46.0494 249° West 425 489 40,000  Level FlightAware Transoceanic
05:55PM 56.8695 -46.2514 249° West 425 489 40,000  Level FlightAware Transoceanic
05:56PM 56.8265 -46.4529 249° West 425 489 40,000  Level FlightAware Transoceanic
05:57PM 56.7833 -46.6540 248° West 425 489 40,000  Level FlightAware Transoceanic
05:58PM 56.7398 -46.8546 248° West 425 489 40,000  Level FlightAware Transoceanic
05:59PM 56.6959 -47.0547 248° West 425 489 40,000  Level FlightAware Transoceanic
06:00PM 56.6517 -47.2544 248° West 425 489 40,000  Level FlightAware Transoceanic
06:01PM 56.6072 -47.4536 248° West 425 489 40,000  Level FlightAware Transoceanic
06:02PM 56.5623 -47.6524 248° West 425 489 40,000  Level FlightAware Transoceanic
06:03PM 56.5172 -47.8506 247° West 425 489 40,000  Level FlightAware Transoceanic
06:04PM 56.4717 -48.0484 247° West 425 489 40,000  Level FlightAware Transoceanic
06:05PM 56.4259 -48.2457 247° West 425 489 40,000  Level FlightAware Transoceanic
06:06PM 56.3798 -48.4426 247° West 425 489 40,000  Level FlightAware Transoceanic
06:07PM 56.3334 -48.6389 247° West 425 489 40,000  Level FlightAware Transoceanic
06:08PM 56.2867 -48.8348 247° West 425 489 40,000  Level FlightAware Transoceanic
06:09PM 56.2397 -49.0302 246° West 425 489 40,000  Level FlightAware Transoceanic
06:10PM 56.1924 -49.2251 246° West 425 489 40,000  Level FlightAware Transoceanic
06:11PM 56.1447 -49.4196 246° West 425 489 40,000  Level FlightAware Transoceanic
06:12PM 56.0968 -49.6135 246° West 425 489 40,000  Level FlightAware Transoceanic
06:13PM 56.0485 -49.8070 246° West 425 489 40,000  Level FlightAware Transoceanic
06:14PM 56.0012 -49.9951 246° West  Level FlightAware Approximate
06:15PM 55.9536 -50.1828 246° West  Level FlightAware Approximate
06:16PM 55.9608 -50.1824 249° West  Level FlightAware Approximate
06:17PM 55.9191 -50.3743 249° West  Level FlightAware Approximate
06:17PM 56.0000 -50.0000 250° West 419 482 40,000  Level ETMS Enhanced Traffic Management System
06:18PM 55.8771 -50.5658 249° West  Level FlightAware Approximate
06:19PM 55.8348 -50.7568 249° West  Level FlightAware Approximate
06:20PM 55.7922 -50.9475 248° West  Level FlightAware Approximate
06:20PM 56.0000 -50.0000 250° West 419 482 40,000  Level ETMS Enhanced Traffic Management System
06:21PM 55.7494 -51.1378 248° West  Level FlightAware Approximate
06:22PM 55.7062 -51.3276 248° West  Level FlightAware Approximate
06:23PM 55.5847 -51.9370 248° West 419 482 40,000  Level FlightAware Transoceanic
06:24PM 55.5415 -52.1284 248° West 419 482 40,000  Level FlightAware Transoceanic
06:25PM 55.4980 -52.3194 248° West 419 482 40,000  Level FlightAware Transoceanic
06:26PM 55.4542 -52.5100 248° West 419 482 40,000  Level FlightAware Transoceanic
06:27PM 55.4101 -52.7001 248° West 419 482 40,000  Level FlightAware Transoceanic
06:28PM 55.3658 -52.8898 248° West 419 482 40,000  Level FlightAware Transoceanic
06:29PM 55.3211 -53.0791 247° West 419 482 40,000  Level FlightAware Transoceanic
06:30PM 55.2761 -53.2680 247° West 419 482 40,000  Level FlightAware Transoceanic
06:31PM 55.2309 -53.4564 247° West 419 482 40,000  Level FlightAware Transoceanic
06:32PM 55.1853 -53.6444 247° West 419 482 40,000  Level FlightAware Transoceanic
06:33PM 55.1395 -53.8320 247° West 419 482 40,000  Level FlightAware Transoceanic
06:34PM 55.0934 -54.0192 247° West 419 482 40,000  Level FlightAware Transoceanic
06:35PM 55.0470 -54.2059 246° West 419 482 40,000  Level FlightAware Transoceanic
06:36PM 55.0003 -54.3922 246° West 419 482 40,000  Level FlightAware Transoceanic
06:37PM 54.9533 -54.5780 246° West 419 482 40,000  Level FlightAware Transoceanic
06:38PM 54.9061 -54.7634 246° West 419 482 40,000  Level FlightAware Transoceanic
06:39PM 54.8585 -54.9484 246° West 419 482 40,000  Level FlightAware Transoceanic
06:40PM 54.8107 -55.1329 246° West 419 482 40,000  Level FlightAware Transoceanic
06:40PM 54.7667 -55.2000 229° Southwest 440 506 40,000  Level Moncton Center
06:41PM 54.7626 -55.3170 246° West 419 482 40,000  Level FlightAware Transoceanic
06:42PM 54.7142 -55.5007 245° Southwest 419 482 40,000 360 Level FlightAware Transoceanic
06:42PM 54.7167 -55.4000 247° West 440 506 40,400  Climbing Gander Center
06:43PM 54.6656 -55.6839 245° Southwest 419 482 40,000 960 Descending FlightAware Transoceanic
06:43PM 54.6667 -55.5833 245° Southwest 430 495 41,400 2,100 Climbing Gander Center
06:44PM 54.5913 -55.8312 229° Southwest  Level Estimated
06:44PM 54.6167 -55.7667 245° Southwest 420 483 42,300  Level Gander Center
06:45PM 54.5169 -55.9779 229° Southwest  Level Estimated
06:45PM 54.5500 -55.9167 233° Southwest 410 472 42,900  Level Gander Center
06:46PM 54.4422 -56.1241 229° Southwest  Level Estimated
06:46PM 54.4833 -56.1000 238° Southwest 410 472 43,000  Level Gander Center
06:47PM 54.4333 -56.2500 240° Southwest 400 460 43,000  Level Gander Center
06:48PM 54.3667 -56.4333 238° Southwest 410 472 43,000  Level Gander Center
06:49PM 54.3167 -56.6167 245° Southwest 420 483 43,000  Level Gander Center
06:50PM 54.2500 -56.7667 233° Southwest 430 495 43,000  Level Gander Center
06:51PM 54.1833 -56.9333 236° Southwest 420 483 43,000  Level Gander Center
06:52PM 54.1333 -57.1167 245° Southwest 420 483 43,000  Level Gander Center
06:53PM 54.0667 -57.3000 238° Southwest 430 495 43,000  Level Gander Center
06:54PM 54.0000 -57.4667 236° Southwest 430 495 43,000  Level Gander Center
06:55PM 53.9500 -57.6500 245° Southwest 440 506 43,000  Level Gander Center
06:56PM 53.8833 -57.8167 236° Southwest 430 495 43,100  Climbing Gander Center
06:57PM 53.8167 -58.0000 238° Southwest 430 495 43,000 -60 Descending Gander Center
06:58PM 53.7333 -58.1667 230° Southwest 430 495 43,000  Level Gander Center
06:59PM 53.6833 -58.3167 241° Southwest 420 483 43,000  Level Gander Center
07:00PM 53.6167 -58.5000 239° Southwest 420 483 43,000  Level Gander Center
07:01PM 53.5500 -58.6667 236° Southwest 430 495 43,000  Level Gander Center
07:02PM 53.4833 -58.8333 236° Southwest 430 495 43,000  Level Gander Center
07:03PM 53.4167 -59.0167 239° Southwest 420 483 43,000  Level Gander Center
07:04PM 53.3667 -59.1500 238° Southwest 420 483 43,000  Level Gander Center
07:05PM 53.3000 -59.3167 236° Southwest 430 495 43,100  Climbing Gander Center
07:06PM 53.2333 -59.5000 239° Southwest 430 495 43,000 -60 Descending Gander Center
07:07PM 53.1667 -59.6667 236° Southwest 430 495 43,000  Level Gander Center
07:08PM 53.1000 -59.8333 236° Southwest 420 483 43,000  Level Gander Center
07:09PM 53.0333 -59.9833 234° Southwest 420 483 43,000  Level Gander Center
07:10PM 52.9667 -60.1500 236° Southwest 420 483 43,000  Level Gander Center
07:11PM 52.9000 -60.3167 236° Southwest 420 483 43,000  Level Gander Center
07:12PM 52.8500 -60.4833 244° Southwest 420 483 43,000  Level Gander Center
07:13PM 52.7833 -60.6167 230° Southwest 420 483 43,000  Level Gander Center
07:14PM 52.7167 -60.7833 237° Southwest 420 483 43,000  Level Gander Center
07:15PM 52.6500 -60.9500 237° Southwest 420 483 43,000  Level Gander Center
07:16PM 52.5833 -61.1167 237° Southwest 420 483 43,000  Level Gander Center
07:17PM 52.5000 -61.2500 224° Southwest 420 483 43,000  Level Gander Center
07:18PM 52.4167 -61.4000 228° Southwest 420 483 43,000  Level Gander Center
07:18PM 52.3333 -61.5167 221° Southwest 420 483 43,000  Level Moncton Center
07:19PM 52.2500 -61.6667 228° Southwest 420 483 43,000  Level Moncton Center
07:20PM 52.2500 -61.6667 228° Southwest 430 495 43,000  Level Gander Center
07:20PM 52.1667 -61.7833 221° Southwest 420 483 43,000  Level Moncton Center
07:21PM 52.0833 -61.9167 225° Southwest 420 483 43,000  Level Moncton Center
07:23PM 52.0000 -62.0667 228° Southwest 420 483 43,000  Level Gander Center
07:24PM 51.9000 -62.2000 219° Southwest 420 483 43,000  Level Gander Center
07:25PM 51.8333 -62.3333 231° Southwest 420 483 43,000  Level Gander Center
07:26PM 51.7500 -62.5000 231° Southwest 420 483 43,000  Level Gander Center
07:27PM 51.6667 -62.6333 225° Southwest 420 483 43,000  Level Gander Center
07:28PM 51.5833 -62.7667 225° Southwest 420 483 43,000  Level Gander Center
07:29PM 51.5000 -62.8667 217° Southwest 420 483 43,000  Level Gander Center
07:30PM 51.4167 -63.0167 228° Southwest 420 483 43,000  Level Gander Center
07:30PM 51.3500 -63.1333 228° Southwest 420 483 43,000  Level Moncton Center
07:32PM 51.2333 -63.2833 219° Southwest 420 483 43,000  Level Gander Center
07:33PM 51.1667 -63.4167 231° Southwest 420 483 43,000  Level Gander Center
07:34PM 51.0667 -63.5500 220° Southwest 420 483 43,000  Level Gander Center
07:35PM 51.0000 -63.6667 228° Southwest 420 483 43,000  Level Gander Center
07:36PM 50.9167 -63.7833 221° Southwest 420 483 43,000  Level Gander Center
07:37PM 50.8167 -63.9333 223° Southwest 420 483 43,000  Level Gander Center
07:37PM 50.7500 -64.0333 224° Southwest 420 483 43,000  Level Moncton Center
07:39PM 50.6500 -64.1833 224° Southwest 420 483 43,000  Level Gander Center
07:40PM 50.5667 -64.3167 225° Southwest 420 483 43,000  Level Gander Center
07:41PM 50.4833 -64.4333 222° Southwest 420 483 43,000  Level Gander Center
07:42PM 50.3833 -64.5667 220° Southwest 420 483 43,000  Level Gander Center
07:43PM 50.3167 -64.6667 224° Southwest 420 483 43,000  Level Gander Center
07:44PM 50.2167 -64.8167 224° Southwest 420 483 43,000  Level Gander Center
07:45PM 50.1500 -64.9333 228° Southwest 420 483 43,000  Level Gander Center
07:46PM 50.0500 -65.0667 221° Southwest 420 483 43,000  Level Gander Center
07:47PM 49.9667 -65.1833 222° Southwest 420 483 43,000  Level Gander Center
07:48PM 49.8833 -65.3000 222° Southwest 420 483 43,000  Level Gander Center
07:49PM 49.8000 -65.4333 226° Southwest 420 483 43,000  Level Gander Center
07:50PM 49.7000 -65.5500 217° Southwest 420 483 43,000  Level Gander Center
07:51PM 49.6167 -65.6667 222° Southwest 420 483 43,000  Level Gander Center
07:52PM 49.5333 -65.7833 222° Southwest 420 483 43,000  Level Gander Center
07:53PM 49.4333 -65.9167 221° Southwest 420 483 43,000  Level Gander Center
07:54PM 49.3667 -66.0333 229° Southwest 420 483 43,000  Level Gander Center
07:55PM 49.2667 -66.1500 217° Southwest 420 483 43,000  Level Gander Center
07:55PM 49.2000 -66.2167 213° Southwest 420 483 43,000  Level Montreal Center
07:56PM 49.1167 -66.3167 218° Southwest 410 472 43,000  Level Montreal Center
07:57PM 49.0333 -66.4333 223° Southwest 420 483 43,000  Level Montreal Center
07:58PM 48.9333 -66.5500 217° Southwest 420 483 43,000  Level Montreal Center
07:59PM 48.8667 -66.6667 229° Southwest 420 483 43,000  Level Montreal Center
08:00PM 48.7667 -66.8000 221° Southwest 420 483 43,000  Level Montreal Center
08:02PM 48.6500 -66.9833 226° Southwest 420 483 43,000  Level Gander Center
08:03PM 48.5833 -67.1000 229° Southwest 420 483 43,000  Level Gander Center
08:04PM 48.5000 -67.2167 223° Southwest 420 483 43,000  Level Gander Center
08:05PM 48.4000 -67.3333 218° Southwest 410 472 43,000  Level Gander Center
08:05PM 48.3500 -67.3833 214° Southwest 420 483 43,000  Level Montreal Center
08:06PM 48.2500 -67.4833 214° Southwest 410 472 43,000  Level Montreal Center
08:07PM 48.1667 -67.6000 223° Southwest 420 483 43,000  Level Montreal Center
08:08PM 48.0667 -67.7500 225° Southwest 420 483 43,000  Level Moncton Center
08:09PM 48.0000 -67.8167 214° Southwest 420 483 43,000  Level Montreal Center
08:10PM 47.9000 -67.9333 218° Southwest 420 483 43,000  Level Montreal Center
08:11PM 47.8000 -68.0500 218° Southwest 420 483 43,000  Level Montreal Center
08:12PM 47.7167 -68.1667 223° Southwest 420 483 43,000  Level Montreal Center
08:13PM 47.6333 -68.2833 223° Southwest 420 483 43,100  Climbing Montreal Center
08:14PM 47.5333 -68.4333 225° Southwest 420 483 43,000 -60 Descending Moncton Center
08:15PM 47.4333 -68.5333 214° Southwest 420 483 43,000  Level Moncton Center
08:16PM 47.3500 -68.6500 224° Southwest 420 483 43,000  Level Moncton Center
08:17PM 47.2833 -68.7333 220° Southwest 420 483 43,000  Level Montreal Center
08:18PM 47.1833 -68.8500 218° Southwest 420 483 43,000  Level Montreal Center
08:19PM 47.1000 -68.9667 224° Southwest 420 483 43,000  Level Montreal Center
08:21PM 46.9803 -69.1386 224° Southwest 425 489 43,000  Level Boston Center
08:22PM 46.8936 -69.2411 219° Southwest 430 495 43,000  Level Boston Center
08:23PM 46.8069 -69.3492 220° Southwest 430 495 43,000  Level Boston Center
08:24PM 46.7183 -69.4569 220° Southwest 425 489 43,000  Level Boston Center
08:25PM 46.6475 -69.5422 220° Southwest 425 489 43,000  Level Boston Center
08:26PM 46.5383 -69.6717 219° Southwest 425 489 43,000  Level Boston Center
08:27PM 46.4469 -69.7786 219° Southwest 430 495 43,000  Level Boston Center
08:28PM 46.3556 -69.8850 219° Southwest 430 495 43,000  Level Boston Center
08:29PM 46.2825 -69.9725 220° Southwest 430 495 43,000  Level Boston Center
08:30PM 46.1567 -70.1217 219° Southwest 430 495 43,000  Level Boston Center
08:31PM 46.0403 -70.2550 219° Southwest 425 489 43,100  Climbing Boston Center
08:32PM 45.9508 -70.3631 220° Southwest 425 489 43,100  Level Boston Center
08:33PM 45.8567 -70.4678 218° Southwest 425 489 43,100  Level Boston Center
08:34PM 45.7647 -70.5719 218° Southwest 425 489 43,100  Level Boston Center
08:35PM 45.6747 -70.6758 219° Southwest 425 489 43,100  Level Boston Center
08:36PM 45.5825 -70.7797 218° Southwest 420 483 43,100  Level Boston Center
08:37PM 45.4925 -70.8800 218° Southwest 420 483 43,100  Level Boston Center
08:38PM 45.4019 -70.9858 219° Southwest 420 483 43,100  Level Boston Center
08:39PM 45.3075 -71.0914 218° Southwest 420 483 43,100  Level Boston Center
08:40PM 45.2211 -71.1908 219° Southwest 420 483 43,100  Level Boston Center
08:41PM 45.1306 -71.2928 218° Southwest 415 478 43,100  Level Boston Center
08:42PM 45.0378 -71.3975 219° Southwest 420 483 43,100  Level Boston Center
08:44PM 44.9450 -71.4958 217° Southwest 425 489 43,100 -60 Level Boston Center
08:45PM 44.8189 -71.6353 218° Southwest 420 483 43,000  Descending Boston Center
08:46PM 44.7278 -71.7331 217° Southwest 420 483 43,100  Climbing Boston Center
08:47PM 44.6369 -71.8306 217° Southwest 420 483 43,100  Level Boston Center
08:48PM 44.5456 -71.9303 218° Southwest 414 476 43,100  Level Boston Center
08:49PM 44.4522 -72.0272 217° Southwest 419 482 43,100 -60 Level Boston Center
08:50PM 44.3525 -72.1381 218° Southwest 419 482 43,000  Descending Boston Center
08:51PM 44.2592 -72.2342 216° Southwest 419 482 43,100  Climbing Boston Center
08:52PM 44.1675 -72.3331 218° Southwest 419 482 43,000 -60 Descending Boston Center
08:53PM 44.0739 -72.4314 217° Southwest 419 482 43,000  Level Boston Center
08:54PM 43.9842 -72.5325 219° Southwest 419 482 43,000  Level Boston Center
08:55PM 43.8861 -72.6417 219° Southwest 414 476 43,000  Level Boston Center
08:56PM 43.7881 -72.7364 215° Southwest 424 488 43,000 -660 Level Boston Center
08:57PM 43.6939 -72.8364 218° Southwest 430 495 41,700 -1,860 Descending Boston Center
08:58PM 43.6081 -72.9303 218° Southwest 417 480 39,300 -2,160 Descending Boston Center
08:59PM 43.5431 -72.9986 217° Southwest 402 463 37,400 -2,220 Descending Boston Center
09:00PM 43.4531 -73.0836 214° Southwest 381 438 34,900 -2,580 Descending Boston Center
09:01PM 43.3672 -73.1769 218° Southwest 374 430 32,300 -2,580 Descending Boston Center
09:02PM 43.2894 -73.2586 217° Southwest 378 435 29,800 -2,220 Descending Boston Center
09:03PM 43.2203 -73.3289 217° Southwest 384 442 27,900 -2,520 Descending Boston Center
09:04PM 43.1047 -73.4411 215° Southwest 390 449 24,800 -2,280 Descending Boston Center
09:05PM 43.0206 -73.5278 217° Southwest 390 449 23,400 -1,440 Descending Boston Center
09:06PM 42.9342 -73.6142 216° Southwest 390 449 22,000 -1,260 Descending Boston Center
09:07PM 42.8603 -73.6947 219° Southwest 390 449 20,900 -1,320 Descending Boston Center
09:08PM 42.7633 -73.7861 215° Southwest 395 455 19,400 -1,260 Descending Boston Center
09:09PM 42.6833 -73.8550 212° Southwest 390 449 18,400 -1,080 Descending Boston Center
09:10PM 42.5783 -73.9289 207° Southwest 385 443 17,300 -1,020 Descending Boston Center
09:11PM 42.4983 -73.9889 209° Southwest 378 435 16,400 -600 Descending Boston Center
09:12PM 42.3950 -74.0650 209° Southwest 373 429 16,000 -240 Descending Boston Center
09:13PM 42.2833 -74.1464 208° Southwest 378 435 16,000  Level Boston Center
09:14PM 42.1947 -74.2167 210° Southwest 378 435 16,000  Level Boston Center
09:15PM 42.1000 -74.2842 208° Southwest 378 435 16,000 -900 Level Boston Center
09:16PM 42.0031 -74.3344 201° Southwest 383 441 14,300 -1,680 Descending Boston Center
09:17PM 41.9067 -74.3789 199° South 376 433 12,700 -1,920 Descending Boston Center
09:18PM 41.8181 -74.4292 203° Southwest 361 415 10,500 -2,160 Descending Boston Center
09:19PM 41.7358 -74.4878 208° Southwest 341 392 8,400 -1,740 Descending Boston Center
09:20PM 41.6639 -74.5381 208° Southwest 309 356 7,100 -720 Descending Boston Center
09:21PM 41.6028 -74.5778 206° Southwest 288 331 7,000 -480 Descending Boston Center
09:22PM 41.5214 -74.5833 183° South 270 311 6,100 -480 Descending Boston Center
09:23PM 41.4358 -74.5889 183° South 275 316 6,000 -60 Descending Boston Center
09:24PM 41.3500 -74.5833 177° South 273 314 6,000 -180 Level New York TRACON
09:25PM 41.2833 -74.6167 201° Southwest 274 315 5,700 -900 Descending New York TRACON
09:26PM 41.2000 -74.6167 180° South 272 313 4,200 -900 Descending New York TRACON
09:27PM 41.1333 -74.6000 169° South 259 298 4,000 -120 Descending New York TRACON
09:28PM 41.0667 -74.5667 159° South 273 314 4,000 -300 Level New York TRACON
09:29PM 41.0000 -74.5333 159° South 269 310 3,400 -540 Descending New York TRACON
09:30PM 40.9167 -74.5000 163° South 266 306 3,000 -240 Descending New York TRACON
09:31PM 40.8500 -74.4667 159° South 268 308 3,000  Level New York TRACON
09:32PM 40.8000 -74.4000 135° Southeast 262 302 3,000 -60 Level New York TRACON
09:33PM 40.7500 -74.3333 135° Southeast 244 281 2,900 -540 Descending New York TRACON
09:34PM 40.7167 -74.2667 123° Southeast 219 252 2,000 -900 Descending New York TRACON